sensor_id;sensor_type;location;lat;lon;timestamp;pressure;altitude;pressure_sealevel;temperature
76476;BMP280;65308;50.078;14.854;2023-07-02T00:01:32;98205.41;;;21.75
76476;BMP280;65308;50.078;14.854;2023-07-02T00:03:59;98212.69;;;21.73
76476;BMP280;65308;50.078;14.854;2023-07-02T00:06:25;98209.75;;;21.71
76476;BMP280;65308;50.078;14.854;2023-07-02T00:08:52;98210.13;;;21.67
76476;BMP280;65308;50.078;14.854;2023-07-02T00:11:19;98210.50;;;21.71
76476;BMP280;65308;50.078;14.854;2023-07-02T00:13:45;98203.06;;;21.72
76476;BMP280;65308;50.078;14.854;2023-07-02T00:16:12;98204.50;;;21.81
76476;BMP280;65308;50.078;14.854;2023-07-02T00:18:40;98211.06;;;21.85
76476;BMP280;65308;50.078;14.854;2023-07-02T00:21:06;98216.50;;;21.85
76476;BMP280;65308;50.078;14.854;2023-07-02T00:23:33;98216.31;;;21.91
76476;BMP280;65308;50.078;14.854;2023-07-02T00:25:59;98205.25;;;21.81
76476;BMP280;65308;50.078;14.854;2023-07-02T00:28:26;98214.16;;;21.74
76476;BMP280;65308;50.078;14.854;2023-07-02T00:30:52;98217.19;;;21.78
76476;BMP280;65308;50.078;14.854;2023-07-02T00:33:19;98214.31;;;21.84
76476;BMP280;65308;50.078;14.854;2023-07-02T00:35:47;98213.78;;;21.85
76476;BMP280;65308;50.078;14.854;2023-07-02T00:38:13;98219.56;;;21.89
76476;BMP280;65308;50.078;14.854;2023-07-02T00:40:40;98221.22;;;21.69
76476;BMP280;65308;50.078;14.854;2023-07-02T00:43:07;98227.78;;;21.74
76476;BMP280;65308;50.078;14.854;2023-07-02T00:45:38;98226.63;;;21.62
76476;BMP280;65308;50.078;14.854;2023-07-02T00:48:05;98226.41;;;21.52
76476;BMP280;65308;50.078;14.854;2023-07-02T00:50:31;98223.16;;;21.46
76476;BMP280;65308;50.078;14.854;2023-07-02T00:52:59;98219.34;;;21.41
76476;BMP280;65308;50.078;14.854;2023-07-02T00:55:26;98226.59;;;21.39
76476;BMP280;65308;50.078;14.854;2023-07-02T00:57:53;98230.56;;;21.30
76476;BMP280;65308;50.078;14.854;2023-07-02T01:00:21;98224.88;;;21.20
76476;BMP280;65308;50.078;14.854;2023-07-02T01:02:53;98216.91;;;21.15
76476;BMP280;65308;50.078;14.854;2023-07-02T01:05:22;98221.63;;;21.22
76476;BMP280;65308;50.078;14.854;2023-07-02T01:07:49;98220.88;;;21.21
76476;BMP280;65308;50.078;14.854;2023-07-02T01:10:16;98221.47;;;21.20
76476;BMP280;65308;50.078;14.854;2023-07-02T01:12:43;98217.81;;;21.25
76476;BMP280;65308;50.078;14.854;2023-07-02T01:15:11;98226.72;;;21.33
76476;BMP280;65308;50.078;14.854;2023-07-02T01:17:39;98227.63;;;21.36
76476;BMP280;65308;50.078;14.854;2023-07-02T01:20:10;98226.03;;;21.40
76476;BMP280;65308;50.078;14.854;2023-07-02T01:22:37;98229.66;;;21.35
76476;BMP280;65308;50.078;14.854;2023-07-02T01:25:05;98220.94;;;21.29
76476;BMP280;65308;50.078;14.854;2023-07-02T01:27:33;98225.28;;;21.25
76476;BMP280;65308;50.078;14.854;2023-07-02T01:30:01;98226.69;;;21.18
76476;BMP280;65308;50.078;14.854;2023-07-02T01:32:28;98228.09;;;21.04
76476;BMP280;65308;50.078;14.854;2023-07-02T01:34:54;98233.16;;;21.00
76476;BMP280;65308;50.078;14.854;2023-07-02T01:37:22;98238.56;;;20.92
76476;BMP280;65308;50.078;14.854;2023-07-02T01:39:49;98243.88;;;20.77
76476;BMP280;65308;50.078;14.854;2023-07-02T01:42:17;98247.13;;;20.67
76476;BMP280;65308;50.078;14.854;2023-07-02T01:44:45;98240.72;;;20.65
76476;BMP280;65308;50.078;14.854;2023-07-02T01:47:13;98236.94;;;20.60
76476;BMP280;65308;50.078;14.854;2023-07-02T01:49:41;98242.50;;;20.55
76476;BMP280;65308;50.078;14.854;2023-07-02T01:52:07;98246.94;;;20.45
76476;BMP280;65308;50.078;14.854;2023-07-02T01:54:35;98248.16;;;20.36
76476;BMP280;65308;50.078;14.854;2023-07-02T01:57:03;98249.16;;;20.25
76476;BMP280;65308;50.078;14.854;2023-07-02T01:59:30;98247.13;;;20.18
76476;BMP280;65308;50.078;14.854;2023-07-02T02:01:57;98245.47;;;20.15
76476;BMP280;65308;50.078;14.854;2023-07-02T02:04:23;98246.84;;;20.08
76476;BMP280;65308;50.078;14.854;2023-07-02T02:06:50;98249.03;;;20.10
76476;BMP280;65308;50.078;14.854;2023-07-02T02:09:17;98244.84;;;20.09
76476;BMP280;65308;50.078;14.854;2023-07-02T02:11:47;98241.06;;;20.12
76476;BMP280;65308;50.078;14.854;2023-07-02T02:14:14;98249.63;;;20.16
76476;BMP280;65308;50.078;14.854;2023-07-02T02:16:40;98234.94;;;20.11
76476;BMP280;65308;50.078;14.854;2023-07-02T02:19:10;98238.97;;;20.18
76476;BMP280;65308;50.078;14.854;2023-07-02T02:21:37;98237.31;;;20.15
76476;BMP280;65308;50.078;14.854;2023-07-02T02:24:05;98237.50;;;20.17
76476;BMP280;65308;50.078;14.854;2023-07-02T02:26:32;98245.19;;;20.26
76476;BMP280;65308;50.078;14.854;2023-07-02T02:29:00;98246.63;;;20.27
76476;BMP280;65308;50.078;14.854;2023-07-02T02:31:27;98246.09;;;20.29
76476;BMP280;65308;50.078;14.854;2023-07-02T02:33:54;98248.72;;;20.13
76476;BMP280;65308;50.078;14.854;2023-07-02T02:36:20;98245.25;;;20.13
76476;BMP280;65308;50.078;14.854;2023-07-02T02:38:47;98250.97;;;20.02
76476;BMP280;65308;50.078;14.854;2023-07-02T02:41:22;98253.00;;;20.09
76476;BMP280;65308;50.078;14.854;2023-07-02T02:43:48;98253.97;;;20.11
76476;BMP280;65308;50.078;14.854;2023-07-02T02:46:21;98247.19;;;20.05
76476;BMP280;65308;50.078;14.854;2023-07-02T02:48:47;98253.28;;;19.98
76476;BMP280;65308;50.078;14.854;2023-07-02T02:51:14;98251.06;;;19.96
76476;BMP280;65308;50.078;14.854;2023-07-02T02:53:41;98252.00;;;19.99
76476;BMP280;65308;50.078;14.854;2023-07-02T02:56:07;98264.31;;;20.00
76476;BMP280;65308;50.078;14.854;2023-07-02T02:58:34;98264.66;;;19.96
76476;BMP280;65308;50.078;14.854;2023-07-02T03:01:00;98266.13;;;19.97
76476;BMP280;65308;50.078;14.854;2023-07-02T03:03:28;98268.19;;;20.04
76476;BMP280;65308;50.078;14.854;2023-07-02T03:05:55;98268.78;;;20.10
76476;BMP280;65308;50.078;14.854;2023-07-02T03:08:21;98266.97;;;20.13
76476;BMP280;65308;50.078;14.854;2023-07-02T03:10:48;98266.31;;;20.20
76476;BMP280;65308;50.078;14.854;2023-07-02T03:13:15;98271.44;;;20.24
76476;BMP280;65308;50.078;14.854;2023-07-02T03:15:41;98270.56;;;20.29
76476;BMP280;65308;50.078;14.854;2023-07-02T03:18:08;98272.22;;;20.32
76476;BMP280;65308;50.078;14.854;2023-07-02T03:20:36;98277.13;;;20.33
76476;BMP280;65308;50.078;14.854;2023-07-02T03:23:02;98265.34;;;20.31
76476;BMP280;65308;50.078;14.854;2023-07-02T03:25:29;98265.34;;;20.31
76476;BMP280;65308;50.078;14.854;2023-07-02T03:27:56;98256.97;;;20.29
76476;BMP280;65308;50.078;14.854;2023-07-02T03:30:22;98258.31;;;20.35
76476;BMP280;65308;50.078;14.854;2023-07-02T03:32:49;98265.78;;;20.42
76476;BMP280;65308;50.078;14.854;2023-07-02T03:35:15;98262.84;;;20.40
76476;BMP280;65308;50.078;14.854;2023-07-02T03:37:43;98267.44;;;20.46
76476;BMP280;65308;50.078;14.854;2023-07-02T03:40:11;98266.56;;;20.51
76476;BMP280;65308;50.078;14.854;2023-07-02T03:42:38;98262.03;;;20.53
76476;BMP280;65308;50.078;14.854;2023-07-02T03:45:05;98269.00;;;20.62
76476;BMP280;65308;50.078;14.854;2023-07-02T03:47:32;98262.69;;;20.67
76476;BMP280;65308;50.078;14.854;2023-07-02T03:49:58;98270.69;;;20.73
76476;BMP280;65308;50.078;14.854;2023-07-02T03:52:25;98265.47;;;20.75
76476;BMP280;65308;50.078;14.854;2023-07-02T03:54:53;98269.31;;;20.79
76476;BMP280;65308;50.078;14.854;2023-07-02T03:57:19;98275.13;;;20.83
76476;BMP280;65308;50.078;14.854;2023-07-02T03:59:46;98276.22;;;20.80
76476;BMP280;65308;50.078;14.854;2023-07-02T04:02:13;98280.19;;;20.79
76476;BMP280;65308;50.078;14.854;2023-07-02T04:04:39;98278.31;;;20.74
76476;BMP280;65308;50.078;14.854;2023-07-02T04:07:06;98276.34;;;20.75
76476;BMP280;65308;50.078;14.854;2023-07-02T04:09:32;98286.47;;;20.74
76476;BMP280;65308;50.078;14.854;2023-07-02T04:12:01;98286.09;;;20.70
76476;BMP280;65308;50.078;14.854;2023-07-02T04:14:27;98294.53;;;20.59
76476;BMP280;65308;50.078;14.854;2023-07-02T04:16:54;98288.03;;;20.62
76476;BMP280;65308;50.078;14.854;2023-07-02T04:19:20;98298.13;;;20.54
76476;BMP280;65308;50.078;14.854;2023-07-02T04:21:47;98297.44;;;20.61
76476;BMP280;65308;50.078;14.854;2023-07-02T04:24:14;98302.28;;;20.55
76476;BMP280;65308;50.078;14.854;2023-07-02T04:26:40;98304.97;;;20.47
76476;BMP280;65308;50.078;14.854;2023-07-02T04:29:09;98305.28;;;20.44
76476;BMP280;65308;50.078;14.854;2023-07-02T04:31:36;98305.28;;;20.44
76476;BMP280;65308;50.078;14.854;2023-07-02T04:34:03;98304.03;;;20.45
76476;BMP280;65308;50.078;14.854;2023-07-02T04:36:30;98304.44;;;20.49
76476;BMP280;65308;50.078;14.854;2023-07-02T04:38:57;98308.19;;;20.46
76476;BMP280;65308;50.078;14.854;2023-07-02T04:41:24;98318.69;;;20.41
76476;BMP280;65308;50.078;14.854;2023-07-02T04:43:51;98310.97;;;20.53
76476;BMP280;65308;50.078;14.854;2023-07-02T04:46:18;98327.34;;;20.61
76476;BMP280;65308;50.078;14.854;2023-07-02T04:48:45;98321.09;;;20.74
76476;BMP280;65308;50.078;14.854;2023-07-02T04:51:12;98333.84;;;20.79
76476;BMP280;65308;50.078;14.854;2023-07-02T04:53:38;98337.09;;;20.77
76476;BMP280;65308;50.078;14.854;2023-07-02T04:56:05;98327.03;;;20.93
76476;BMP280;65308;50.078;14.854;2023-07-02T04:58:32;98329.31;;;20.81
76476;BMP280;65308;50.078;14.854;2023-07-02T05:00:58;98330.84;;;20.69
76476;BMP280;65308;50.078;14.854;2023-07-02T05:03:26;98330.75;;;20.75
76476;BMP280;65308;50.078;14.854;2023-07-02T05:05:53;98329.41;;;20.68
76476;BMP280;65308;50.078;14.854;2023-07-02T05:08:19;98334.00;;;20.52
76476;BMP280;65308;50.078;14.854;2023-07-02T05:10:46;98322.41;;;20.52
76476;BMP280;65308;50.078;14.854;2023-07-02T05:13:13;98331.47;;;20.54
76476;BMP280;65308;50.078;14.854;2023-07-02T05:15:39;98327.16;;;20.59
76476;BMP280;65308;50.078;14.854;2023-07-02T05:18:06;98337.31;;;20.58
76476;BMP280;65308;50.078;14.854;2023-07-02T05:20:34;98336.19;;;20.75
76476;BMP280;65308;50.078;14.854;2023-07-02T05:23:01;98331.34;;;20.88
76476;BMP280;65308;50.078;14.854;2023-07-02T05:25:27;98327.38;;;20.89
76476;BMP280;65308;50.078;14.854;2023-07-02T05:27:54;98329.00;;;20.92
76476;BMP280;65308;50.078;14.854;2023-07-02T05:30:20;98331.81;;;21.00
76476;BMP280;65308;50.078;14.854;2023-07-02T05:32:47;98327.28;;;21.03
76476;BMP280;65308;50.078;14.854;2023-07-02T05:35:14;98328.47;;;21.15
76476;BMP280;65308;50.078;14.854;2023-07-02T05:37:42;98323.97;;;21.25
76476;BMP280;65308;50.078;14.854;2023-07-02T05:40:09;98327.00;;;21.58
76476;BMP280;65308;50.078;14.854;2023-07-02T05:42:36;98334.03;;;22.27
76476;BMP280;65308;50.078;14.854;2023-07-02T05:45:03;98326.44;;;22.56
76476;BMP280;65308;50.078;14.854;2023-07-02T05:47:30;98347.13;;;23.78
76476;BMP280;65308;50.078;14.854;2023-07-02T05:49:58;98333.25;;;26.11
76476;BMP280;65308;50.078;14.854;2023-07-02T05:52:25;98328.50;;;26.11
76476;BMP280;65308;50.078;14.854;2023-07-02T05:54:53;98346.66;;;28.35
76476;BMP280;65308;50.078;14.854;2023-07-02T05:57:19;98343.88;;;29.58
76476;BMP280;65308;50.078;14.854;2023-07-02T05:59:46;98344.09;;;30.85
76476;BMP280;65308;50.078;14.854;2023-07-02T06:02:13;98333.97;;;30.76
76476;BMP280;65308;50.078;14.854;2023-07-02T06:04:39;98330.22;;;30.46
76476;BMP280;65308;50.078;14.854;2023-07-02T06:07:06;98333.03;;;30.09
76476;BMP280;65308;50.078;14.854;2023-07-02T06:09:32;98327.44;;;29.60
76476;BMP280;65308;50.078;14.854;2023-07-02T06:12:00;98333.41;;;28.98
76476;BMP280;65308;50.078;14.854;2023-07-02T06:14:27;98335.69;;;28.47
76476;BMP280;65308;50.078;14.854;2023-07-02T06:16:54;98336.00;;;28.30
76476;BMP280;65308;50.078;14.854;2023-07-02T06:19:22;98363.59;;;29.07
76476;BMP280;65308;50.078;14.854;2023-07-02T06:21:49;98343.34;;;29.96
76476;BMP280;65308;50.078;14.854;2023-07-02T06:24:15;98350.59;;;31.03
76476;BMP280;65308;50.078;14.854;2023-07-02T06:26:42;98347.16;;;31.85
76476;BMP280;65308;50.078;14.854;2023-07-02T06:29:10;98365.50;;;33.77
76476;BMP280;65308;50.078;14.854;2023-07-02T06:31:37;98362.16;;;35.49
76476;BMP280;65308;50.078;14.854;2023-07-02T06:34:03;98371.38;;;36.93
76476;BMP280;65308;50.078;14.854;2023-07-02T06:36:30;98365.44;;;38.22
76476;BMP280;65308;50.078;14.854;2023-07-02T06:38:57;98341.25;;;36.87
76476;BMP280;65308;50.078;14.854;2023-07-02T06:41:23;98347.47;;;37.11
76476;BMP280;65308;50.078;14.854;2023-07-02T06:43:50;98343.78;;;36.53
76476;BMP280;65308;50.078;14.854;2023-07-02T06:46:19;98351.09;;;35.94
76476;BMP280;65308;50.078;14.854;2023-07-02T06:48:45;98368.00;;;37.80
76476;BMP280;65308;50.078;14.854;2023-07-02T06:51:12;98355.09;;;37.65
76476;BMP280;65308;50.078;14.854;2023-07-02T06:53:40;98351.59;;;36.82
76476;BMP280;65308;50.078;14.854;2023-07-02T06:56:15;98356.19;;;36.24
76476;BMP280;65308;50.078;14.854;2023-07-02T06:58:46;98346.22;;;35.30
76476;BMP280;65308;50.078;14.854;2023-07-02T07:01:13;98347.06;;;34.75
76476;BMP280;65308;50.078;14.854;2023-07-02T07:03:41;98357.19;;;33.77
76476;BMP280;65308;50.078;14.854;2023-07-02T07:06:07;98353.81;;;33.63
76476;BMP280;65308;50.078;14.854;2023-07-02T07:08:37;98349.34;;;33.06
76476;BMP280;65308;50.078;14.854;2023-07-02T07:11:04;98344.53;;;32.17
76476;BMP280;65308;50.078;14.854;2023-07-02T07:13:30;98350.16;;;31.48
76476;BMP280;65308;50.078;14.854;2023-07-02T07:15:57;98355.50;;;30.66
76476;BMP280;65308;50.078;14.854;2023-07-02T07:18:24;98375.66;;;30.68
76476;BMP280;65308;50.078;14.854;2023-07-02T07:20:52;98374.59;;;33.46
76476;BMP280;65308;50.078;14.854;2023-07-02T07:23:19;98376.88;;;35.73
76476;BMP280;65308;50.078;14.854;2023-07-02T07:25:48;98381.13;;;37.45
76476;BMP280;65308;50.078;14.854;2023-07-02T07:28:14;98346.25;;;38.06
76476;BMP280;65308;50.078;14.854;2023-07-02T07:30:42;98338.22;;;37.05
76476;BMP280;65308;50.078;14.854;2023-07-02T07:33:09;98340.78;;;35.99
76476;BMP280;65308;50.078;14.854;2023-07-02T07:35:36;98351.91;;;35.14
76476;BMP280;65308;50.078;14.854;2023-07-02T07:38:04;98348.50;;;34.20
76476;BMP280;65308;50.078;14.854;2023-07-02T07:40:31;98357.09;;;33.26
76476;BMP280;65308;50.078;14.854;2023-07-02T07:42:57;98358.09;;;32.40
76476;BMP280;65308;50.078;14.854;2023-07-02T07:45:24;98359.19;;;31.62
76476;BMP280;65308;50.078;14.854;2023-07-02T07:47:51;98356.38;;;30.56
76476;BMP280;65308;50.078;14.854;2023-07-02T07:50:22;98381.34;;;30.58
76476;BMP280;65308;50.078;14.854;2023-07-02T07:52:50;98393.78;;;33.09
76476;BMP280;65308;50.078;14.854;2023-07-02T07:55:19;98376.00;;;33.96
76476;BMP280;65308;50.078;14.854;2023-07-02T07:57:46;98378.78;;;34.14
76476;BMP280;65308;50.078;14.854;2023-07-02T08:00:14;98409.28;;;34.85
76476;BMP280;65308;50.078;14.854;2023-07-02T08:02:42;98373.53;;;35.57
76476;BMP280;65308;50.078;14.854;2023-07-02T08:05:09;98376.78;;;35.49
76476;BMP280;65308;50.078;14.854;2023-07-02T08:07:36;98380.63;;;35.40
76476;BMP280;65308;50.078;14.854;2023-07-02T08:10:02;98396.63;;;35.40
76476;BMP280;65308;50.078;14.854;2023-07-02T08:12:31;98412.31;;;37.66
76476;BMP280;65308;50.078;14.854;2023-07-02T08:14:57;98406.75;;;38.59
76476;BMP280;65308;50.078;14.854;2023-07-02T08:17:24;98405.09;;;39.60
76476;BMP280;65308;50.078;14.854;2023-07-02T08:19:51;98408.38;;;41.14
76476;BMP280;65308;50.078;14.854;2023-07-02T08:22:18;98407.81;;;42.61
76476;BMP280;65308;50.078;14.854;2023-07-02T08:24:45;98392.25;;;43.83
76476;BMP280;65308;50.078;14.854;2023-07-02T08:27:14;98417.53;;;45.18
76476;BMP280;65308;50.078;14.854;2023-07-02T08:29:45;98379.31;;;45.27
76476;BMP280;65308;50.078;14.854;2023-07-02T08:32:12;98381.00;;;45.67
76476;BMP280;65308;50.078;14.854;2023-07-02T08:34:39;98410.63;;;43.82
76476;BMP280;65308;50.078;14.854;2023-07-02T08:37:05;98404.66;;;44.45
76476;BMP280;65308;50.078;14.854;2023-07-02T08:39:32;98389.53;;;42.56
76476;BMP280;65308;50.078;14.854;2023-07-02T08:42:01;98395.66;;;41.97
76476;BMP280;65308;50.078;14.854;2023-07-02T08:44:27;98400.34;;;39.27
76476;BMP280;65308;50.078;14.854;2023-07-02T08:46:55;98403.78;;;37.87
76476;BMP280;65308;50.078;14.854;2023-07-02T08:49:22;98429.81;;;37.38
76476;BMP280;65308;50.078;14.854;2023-07-02T08:51:49;98423.47;;;38.91
76476;BMP280;65308;50.078;14.854;2023-07-02T08:54:17;98407.84;;;37.82
76476;BMP280;65308;50.078;14.854;2023-07-02T08:56:44;98407.00;;;36.94
76476;BMP280;65308;50.078;14.854;2023-07-02T08:59:12;98410.78;;;35.68
76476;BMP280;65308;50.078;14.854;2023-07-02T09:01:45;98423.78;;;34.28
76476;BMP280;65308;50.078;14.854;2023-07-02T09:04:18;98414.53;;;33.08
76476;BMP280;65308;50.078;14.854;2023-07-02T09:06:48;98406.50;;;32.39
76476;BMP280;65308;50.078;14.854;2023-07-02T09:09:20;98427.44;;;33.66
76476;BMP280;65308;50.078;14.854;2023-07-02T09:12:00;98430.75;;;34.65
76476;BMP280;65308;50.078;14.854;2023-07-02T09:14:28;98414.41;;;34.73
76476;BMP280;65308;50.078;14.854;2023-07-02T09:17:05;98419.53;;;33.92
76476;BMP280;65308;50.078;14.854;2023-07-02T09:19:35;98410.59;;;33.44
76476;BMP280;65308;50.078;14.854;2023-07-02T09:22:03;98415.00;;;32.72
76476;BMP280;65308;50.078;14.854;2023-07-02T09:24:31;98407.81;;;31.54
76476;BMP280;65308;50.078;14.854;2023-07-02T09:26:59;98408.25;;;30.83
76476;BMP280;65308;50.078;14.854;2023-07-02T09:29:28;98418.28;;;31.96
76476;BMP280;65308;50.078;14.854;2023-07-02T09:31:55;98408.75;;;32.72
76476;BMP280;65308;50.078;14.854;2023-07-02T09:34:27;98401.63;;;32.53
76476;BMP280;65308;50.078;14.854;2023-07-02T09:36:56;98405.78;;;32.68
76476;BMP280;65308;50.078;14.854;2023-07-02T09:39:27;98410.53;;;32.81
76476;BMP280;65308;50.078;14.854;2023-07-02T09:41:55;98407.09;;;32.51
76476;BMP280;65308;50.078;14.854;2023-07-02T09:44:25;98412.22;;;31.86
76476;BMP280;65308;50.078;14.854;2023-07-02T09:46:58;98403.09;;;31.03
76476;BMP280;65308;50.078;14.854;2023-07-02T09:49:26;98399.31;;;30.22
76476;BMP280;65308;50.078;14.854;2023-07-02T09:51:53;98413.50;;;29.47
76476;BMP280;65308;50.078;14.854;2023-07-02T09:54:22;98409.63;;;29.28
76476;BMP280;65308;50.078;14.854;2023-07-02T09:56:51;98402.09;;;29.29
76476;BMP280;65308;50.078;14.854;2023-07-02T09:59:18;98407.88;;;29.45
76476;BMP280;65308;50.078;14.854;2023-07-02T10:01:45;98405.09;;;29.56
76476;BMP280;65308;50.078;14.854;2023-07-02T10:04:13;98409.22;;;29.90
76476;BMP280;65308;50.078;14.854;2023-07-02T10:06:46;98404.84;;;30.22
76476;BMP280;65308;50.078;14.854;2023-07-02T10:09:14;98405.34;;;30.07
76476;BMP280;65308;50.078;14.854;2023-07-02T10:11:45;98415.69;;;29.72
76476;BMP280;65308;50.078;14.854;2023-07-02T10:14:12;98418.78;;;29.43
76476;BMP280;65308;50.078;14.854;2023-07-02T10:16:49;98411.00;;;29.06
76476;BMP280;65308;50.078;14.854;2023-07-02T10:19:16;98413.78;;;28.85
76476;BMP280;65308;50.078;14.854;2023-07-02T10:21:43;98410.91;;;28.82
76476;BMP280;65308;50.078;14.854;2023-07-02T10:24:12;98410.13;;;28.92
76476;BMP280;65308;50.078;14.854;2023-07-02T10:26:53;98406.63;;;29.13
76476;BMP280;65308;50.078;14.854;2023-07-02T10:29:21;98408.59;;;29.33
76476;BMP280;65308;50.078;14.854;2023-07-02T10:31:48;98411.69;;;29.39
76476;BMP280;65308;50.078;14.854;2023-07-02T10:34:15;98402.97;;;29.55
76476;BMP280;65308;50.078;14.854;2023-07-02T10:36:42;98406.88;;;29.40
76476;BMP280;65308;50.078;14.854;2023-07-02T10:39:09;98405.00;;;29.43
76476;BMP280;65308;50.078;14.854;2023-07-02T10:41:35;98409.44;;;29.36
76476;BMP280;65308;50.078;14.854;2023-07-02T10:44:07;98404.91;;;29.52
76476;BMP280;65308;50.078;14.854;2023-07-02T10:46:34;98398.88;;;29.79
76476;BMP280;65308;50.078;14.854;2023-07-02T10:49:01;98396.00;;;30.00
76476;BMP280;65308;50.078;14.854;2023-07-02T10:51:28;98386.53;;;30.04
76476;BMP280;65308;50.078;14.854;2023-07-02T10:53:58;98385.09;;;29.79
76476;BMP280;65308;50.078;14.854;2023-07-02T10:56:25;98391.44;;;29.47
76476;BMP280;65308;50.078;14.854;2023-07-02T10:58:53;98393.00;;;29.26
76476;BMP280;65308;50.078;14.854;2023-07-02T11:01:25;98395.34;;;28.75
76476;BMP280;65308;50.078;14.854;2023-07-02T11:04:02;98388.00;;;28.68
76476;BMP280;65308;50.078;14.854;2023-07-02T11:06:31;98390.03;;;28.68
76476;BMP280;65308;50.078;14.854;2023-07-02T11:08:59;98407.41;;;28.49
76476;BMP280;65308;50.078;14.854;2023-07-02T11:11:26;98408.47;;;27.82
76476;BMP280;65308;50.078;14.854;2023-07-02T11:13:53;98413.03;;;27.48
76476;BMP280;65308;50.078;14.854;2023-07-02T11:16:21;98411.03;;;27.39
76476;BMP280;65308;50.078;14.854;2023-07-02T11:18:52;98409.91;;;27.23
76476;BMP280;65308;50.078;14.854;2023-07-02T11:21:19;98412.94;;;27.17
76476;BMP280;65308;50.078;14.854;2023-07-02T11:23:46;98411.78;;;27.30
76476;BMP280;65308;50.078;14.854;2023-07-02T11:26:13;98407.72;;;27.50
76476;BMP280;65308;50.078;14.854;2023-07-02T11:28:49;98405.50;;;27.68
76476;BMP280;65308;50.078;14.854;2023-07-02T11:31:24;98406.59;;;27.75
76476;BMP280;65308;50.078;14.854;2023-07-02T11:33:53;98392.81;;;27.84
76476;BMP280;65308;50.078;14.854;2023-07-02T11:36:21;98402.22;;;27.91
76476;BMP280;65308;50.078;14.854;2023-07-02T11:38:49;98400.34;;;28.15
76476;BMP280;65308;50.078;14.854;2023-07-02T11:41:17;98395.63;;;28.37
76476;BMP280;65308;50.078;14.854;2023-07-02T11:43:44;98392.22;;;28.17
76476;BMP280;65308;50.078;14.854;2023-07-02T11:46:10;98399.38;;;28.32
76476;BMP280;65308;50.078;14.854;2023-07-02T11:48:37;98403.47;;;28.52
76476;BMP280;65308;50.078;14.854;2023-07-02T11:51:05;98398.44;;;28.70
76476;BMP280;65308;50.078;14.854;2023-07-02T11:53:32;98390.53;;;28.76
76476;BMP280;65308;50.078;14.854;2023-07-02T11:55:59;98411.47;;;28.69
76476;BMP280;65308;50.078;14.854;2023-07-02T11:58:25;98411.00;;;28.73
76476;BMP280;65308;50.078;14.854;2023-07-02T12:00:52;98409.56;;;28.50
76476;BMP280;65308;50.078;14.854;2023-07-02T12:03:19;98417.78;;;28.29
76476;BMP280;65308;50.078;14.854;2023-07-02T12:05:45;98420.94;;;28.35
76476;BMP280;65308;50.078;14.854;2023-07-02T12:08:13;98419.63;;;28.46
76476;BMP280;65308;50.078;14.854;2023-07-02T12:10:40;98412.94;;;28.49
76476;BMP280;65308;50.078;14.854;2023-07-02T12:13:07;98419.34;;;28.42
76476;BMP280;65308;50.078;14.854;2023-07-02T12:15:33;98411.78;;;28.21
76476;BMP280;65308;50.078;14.854;2023-07-02T12:18:00;98416.81;;;28.25
76476;BMP280;65308;50.078;14.854;2023-07-02T12:20:26;98410.78;;;28.38
76476;BMP280;65308;50.078;14.854;2023-07-02T12:22:53;98411.91;;;28.44
76476;BMP280;65308;50.078;14.854;2023-07-02T12:25:21;98408.13;;;28.49
76476;BMP280;65308;50.078;14.854;2023-07-02T12:27:48;98410.69;;;28.57
76476;BMP280;65308;50.078;14.854;2023-07-02T12:30:15;98413.91;;;28.54
76476;BMP280;65308;50.078;14.854;2023-07-02T12:32:42;98420.16;;;28.23
76476;BMP280;65308;50.078;14.854;2023-07-02T12:35:10;98426.16;;;28.10
76476;BMP280;65308;50.078;14.854;2023-07-02T12:37:43;98424.59;;;28.07
76476;BMP280;65308;50.078;14.854;2023-07-02T12:40:11;98423.97;;;28.18
76476;BMP280;65308;50.078;14.854;2023-07-02T12:42:40;98420.16;;;28.23
76476;BMP280;65308;50.078;14.854;2023-07-02T12:45:08;98416.59;;;28.42
76476;BMP280;65308;50.078;14.854;2023-07-02T12:47:36;98423.13;;;28.37
76476;BMP280;65308;50.078;14.854;2023-07-02T12:50:03;98415.28;;;28.43
76476;BMP280;65308;50.078;14.854;2023-07-02T12:52:30;98416.97;;;28.48
76476;BMP280;65308;50.078;14.854;2023-07-02T12:54:56;98400.56;;;28.50
76476;BMP280;65308;50.078;14.854;2023-07-02T12:57:23;98406.34;;;28.54
76476;BMP280;65308;50.078;14.854;2023-07-02T12:59:53;98404.25;;;28.43
76476;BMP280;65308;50.078;14.854;2023-07-02T13:02:20;98407.72;;;28.22
76476;BMP280;65308;50.078;14.854;2023-07-02T13:04:47;98417.41;;;28.23
76476;BMP280;65308;50.078;14.854;2023-07-02T13:07:13;98416.03;;;28.34
76476;BMP280;65308;50.078;14.854;2023-07-02T13:09:40;98420.22;;;28.13
76476;BMP280;65308;50.078;14.854;2023-07-02T13:12:07;98426.97;;;28.22
76476;BMP280;65308;50.078;14.854;2023-07-02T13:14:34;98414.13;;;28.46
76476;BMP280;65308;50.078;14.854;2023-07-02T13:17:03;98424.25;;;28.86
76476;BMP280;65308;50.078;14.854;2023-07-02T13:19:30;98427.75;;;28.98
76476;BMP280;65308;50.078;14.854;2023-07-02T13:21:57;98423.66;;;28.66
76476;BMP280;65308;50.078;14.854;2023-07-02T13:24:24;98429.34;;;28.16
76476;BMP280;65308;50.078;14.854;2023-07-02T13:26:51;98424.22;;;27.91
76476;BMP280;65308;50.078;14.854;2023-07-02T13:29:18;98416.28;;;27.85
76476;BMP280;65308;50.078;14.854;2023-07-02T13:31:44;98423.91;;;27.87
76476;BMP280;65308;50.078;14.854;2023-07-02T13:34:13;98425.91;;;27.96
76476;BMP280;65308;50.078;14.854;2023-07-02T13:36:39;98418.97;;;28.05
76476;BMP280;65308;50.078;14.854;2023-07-02T13:39:06;98414.00;;;28.13
76476;BMP280;65308;50.078;14.854;2023-07-02T13:41:33;98413.84;;;28.11
76476;BMP280;65308;50.078;14.854;2023-07-02T13:43:59;98414.56;;;28.11
76476;BMP280;65308;50.078;14.854;2023-07-02T13:46:26;98413.75;;;27.99
76476;BMP280;65308;50.078;14.854;2023-07-02T13:48:53;98410.84;;;28.07
76476;BMP280;65308;50.078;14.854;2023-07-02T13:51:21;98411.13;;;28.32
76476;BMP280;65308;50.078;14.854;2023-07-02T13:53:48;98414.25;;;28.38
76476;BMP280;65308;50.078;14.854;2023-07-02T13:56:14;98414.22;;;28.48
76476;BMP280;65308;50.078;14.854;2023-07-02T13:59:00;98415.69;;;28.49